Stations météo

Publicité
Winterbourne No 2, Grande-Bretagne (99062): Température de l'air & dewpoint: 30.03.2020 19:00:00 - 05.04.2020 19:00:00 (BST)Winterbourne No 2, Grande-Bretagne (99062): Température de l'air -20cm & Température de l'air -100cm: 30.03.2020 19:00:00 - 05.04.2020 19:00:00 (BST)Winterbourne No 2, Grande-Bretagne (99062): Quantités de précipitations: 30.03.2020 19:00:00 - 05.04.2020 19:00:00 (BST)
Date & Time tt [°C] td [°C] tt -20cm [°C] tt -100cm [°C] rr [mm]
05.04.2020 19:00:00 17,3 5,6 - - 0,0
05.04.2020 18:00:00 19,6 5,3 - - 0,0
05.04.2020 17:00:00 19,2 5,2 - - 0,0
05.04.2020 16:00:00 19,5 4,9 - - 0,0
05.04.2020 15:00:00 18,6 3,8 - - 0,0
05.04.2020 14:00:00 17,5 4,1 - - 0,0
05.04.2020 13:00:00 16,9 5,0 - - 0,0
05.04.2020 12:00:00 15,6 3,3 - - 0,0
05.04.2020 11:00:00 14,6 3,2 - - 0,0
05.04.2020 10:00:00 12,4 3,2 7,9 7,7 0,0
05.04.2020 09:00:00 9,6 2,7 - - 0,0
05.04.2020 08:00:00 7,1 2,6 - - 0,0
05.04.2020 07:00:00 5,6 2,2 - - 0,0
05.04.2020 06:00:00 5,7 2,0 - - 0,0
05.04.2020 05:00:00 5,8 1,7 - - 0,0
05.04.2020 04:00:00 6,7 1,5 - - 0,0
05.04.2020 03:00:00 5,9 0,5 - - 0,0
05.04.2020 02:00:00 5,7 -0,2 - - 0,0
05.04.2020 01:00:00 6,2 0,0 - - 0,0
05.04.2020 00:00:00 6,4 0,6 - - 0,0
04.04.2020 23:00:00 8,2 0,8 - - 0,0
04.04.2020 22:00:00 9,7 0,9 - - 0,0
04.04.2020 21:00:00 10,3 2,4 - - 0,0
04.04.2020 20:00:00 11,8 3,0 - - 0,0
04.04.2020 19:00:00 13,0 2,3 - - 0,0
04.04.2020 18:00:00 13,8 2,4 - - 0,0
04.04.2020 17:00:00 15,7 3,4 - - 0,0
04.04.2020 16:00:00 14,3 5,0 - - 0,0
04.04.2020 15:00:00 13,3 6,1 - - 0,0
04.04.2020 14:00:00 12,3 6,2 - - 0,0
04.04.2020 13:00:00 10,1 6,3 - - 0,0
04.04.2020 12:00:00 7,6 5,4 - - 0,0
04.04.2020 11:00:00 6,6 5,3 - - 0,0
04.04.2020 10:00:00 7,4 5,0 7,7 7,7 0,0
04.04.2020 09:00:00 6,9 5,0 - - 0,0
04.04.2020 08:00:00 4,1 4,1 - - 0,0
04.04.2020 07:00:00 2,6 2,5 - - 0,0
04.04.2020 06:00:00 2,2 1,7 - - 0,0
04.04.2020 05:00:00 2,6 1,8 - - 0,0
04.04.2020 04:00:00 3,8 2,6 - - 0,0
04.04.2020 03:00:00 4,7 3,5 - - 0,0
04.04.2020 02:00:00 4,9 3,3 - - 0,0
04.04.2020 01:00:00 4,8 2,6 - - 0,0
04.04.2020 00:00:00 4,4 2,8 - - 0,0
03.04.2020 23:00:00 3,9 1,9 - - 0,0
03.04.2020 22:00:00 5,1 1,8 - - 0,0
03.04.2020 21:00:00 6,7 2,0 - - 0,0
03.04.2020 20:00:00 9,3 1,7 - - 0,0
03.04.2020 19:00:00 10,8 1,3 - - 0,0
03.04.2020 18:00:00 11,9 1,6 - - 0,0
03.04.2020 17:00:00 11,6 1,5 - - 0,0
03.04.2020 16:00:00 11,8 1,1 - - 0,0
03.04.2020 15:00:00 11,9 0,9 - - 0,0
03.04.2020 14:00:00 10,4 0,3 - - 0,0
03.04.2020 13:00:00 10,0 0,0 - - 0,0
03.04.2020 12:00:00 9,4 0,4 - - 0,0
03.04.2020 11:00:00 8,5 -1,0 - - 0,0
03.04.2020 10:00:00 8,4 1,8 7,7 7,7 0,0
03.04.2020 09:00:00 6,9 2,1 - - 0,0
03.04.2020 08:00:00 6,0 3,3 - - 0,0
03.04.2020 07:00:00 5,5 2,8 - - 0,0
03.04.2020 06:00:00 6,1 2,9 - - 0,0
03.04.2020 05:00:00 6,0 3,7 - - 0,0
03.04.2020 04:00:00 5,5 3,6 - - 0,0
03.04.2020 03:00:00 6,1 3,5 - - 0,0
03.04.2020 02:00:00 6,4 2,9 - - 0,0
03.04.2020 01:00:00 6,7 2,6 - - 0,0
03.04.2020 00:00:00 6,7 2,7 - - 0,0
02.04.2020 23:00:00 6,8 2,6 - - 0,0
02.04.2020 22:00:00 7,5 3,6 - - 0,0
02.04.2020 21:00:00 8,5 4,3 - - 0,0
02.04.2020 20:00:00 9,0 4,7 - - 0,0
02.04.2020 19:00:00 10,1 4,1 - - 0,0
02.04.2020 18:00:00 11,1 4,7 - - 0,0
02.04.2020 17:00:00 12,2 4,2 - - 0,0
02.04.2020 16:00:00 11,8 4,6 - - 0,0
02.04.2020 15:00:00 11,2 5,0 - - 0,0
02.04.2020 14:00:00 10,7 5,2 - - 0,0
02.04.2020 13:00:00 10,0 4,9 - - 0,0
02.04.2020 12:00:00 10,2 4,7 - - 0,0
02.04.2020 11:00:00 10,2 4,1 - - 0,0
02.04.2020 10:00:00 9,5 4,1 7,7 7,7 0,0
02.04.2020 09:00:00 8,4 4,8 - - 0,0
02.04.2020 08:00:00 6,5 4,0 - - 0,0
02.04.2020 07:00:00 5,7 3,1 - - 0,0
02.04.2020 06:00:00 6,2 2,7 - - 0,0
02.04.2020 05:00:00 6,5 2,8 - - 0,0
02.04.2020 04:00:00 6,5 2,4 - - 0,0
02.04.2020 03:00:00 6,5 2,0 - - 0,0
02.04.2020 02:00:00 6,6 2,0 - - 0,0
02.04.2020 01:00:00 6,6 1,8 - - 0,0
02.04.2020 00:00:00 6,5 1,6 - - 0,0
01.04.2020 23:00:00 6,5 1,5 - - 0,0
01.04.2020 22:00:00 6,6 1,4 - - 0,0
01.04.2020 21:00:00 6,8 1,0 - - 0,0
01.04.2020 20:00:00 7,1 0,6 - - 0,0
01.04.2020 19:00:00 7,3 0,4 - - 0,0
01.04.2020 18:00:00 7,9 -0,3 - - 0,0
01.04.2020 17:00:00 7,8 0,0 - - 0,0
01.04.2020 16:00:00 7,4 -0,1 - - 0,0
01.04.2020 15:00:00 7,6 -0,6 - - 0,0
01.04.2020 14:00:00 7,3 0,7 - - 0,0
01.04.2020 13:00:00 6,3 1,0 - - 0,0
01.04.2020 12:00:00 6,6 -0,1 - - 0,0
01.04.2020 11:00:00 6,5 0,7 - - 0,0
01.04.2020 10:00:00 5,7 1,1 7,7 7,7 0,0
01.04.2020 09:00:00 5,3 1,7 - - 0,0
01.04.2020 08:00:00 5,0 1,8 - - 0,0
01.04.2020 07:00:00 4,6 2,0 - - 0,0
01.04.2020 06:00:00 4,4 2,3 - - 0,0
01.04.2020 05:00:00 4,2 1,1 - - 0,0
01.04.2020 04:00:00 4,1 1,2 - - 0,0
01.04.2020 03:00:00 3,4 1,3 - - 0,0
01.04.2020 02:00:00 2,4 1,2 - - 0,0
01.04.2020 01:00:00 2,0 0,1 - - 0,0
01.04.2020 00:00:00 3,4 0,7 - - 0,0
31.03.2020 23:00:00 3,3 0,3 - - 0,0
31.03.2020 22:00:00 4,5 -0,2 - - 0,0
31.03.2020 21:00:00 6,8 -0,4 - - 0,0
31.03.2020 20:00:00 7,4 -0,5 - - 0,0
31.03.2020 19:00:00 7,8 -0,6 - - 0,0
31.03.2020 18:00:00 8,2 0,0 - - 0,0
31.03.2020 17:00:00 8,8 -0,7 - - 0,0
31.03.2020 16:00:00 9,5 -0,8 - - 0,0
31.03.2020 15:00:00 9,1 -0,8 - - 0,0
31.03.2020 14:00:00 8,7 -1,3 - - 0,0
31.03.2020 13:00:00 8,0 -1,0 - - 0,0
31.03.2020 12:00:00 7,1 -0,6 - - 0,0
31.03.2020 11:00:00 6,3 -0,5 - - 0,0
31.03.2020 10:00:00 6,4 0,7 7,2 7,7 0,0
31.03.2020 09:00:00 5,1 1,6 - - 0,0
31.03.2020 08:00:00 3,8 2,0 - - 0,0
31.03.2020 07:00:00 3,1 1,6 - - 0,0
31.03.2020 06:00:00 3,4 1,5 - - 0,0
31.03.2020 05:00:00 3,8 2,2 - - 0,0
31.03.2020 04:00:00 4,3 2,1 - - 0,0
31.03.2020 03:00:00 4,4 1,7 - - 0,0
31.03.2020 02:00:00 5,2 1,6 - - 0,0
31.03.2020 01:00:00 5,3 2,4 - - 0,0
31.03.2020 00:00:00 5,4 3,2 - - 0,0
30.03.2020 23:00:00 6,6 2,0 - - 0,0
30.03.2020 22:00:00 6,7 2,2 - - 0,0
30.03.2020 21:00:00 6,6 2,4 - - 0,0
30.03.2020 20:00:00 7,0 2,2 - - 0,0
30.03.2020 19:00:00 6,8 2,5 - - 0,0

tt = Température de l'air
td = dewpoint
tt -20cm = Température de l'air -20cm
tt -100cm = Température de l'air -100cm
rr = Quantités de précipitations

stations d'obs. à proximité